Station History

Weather Underground - logo

Station Historical Data
 
Daily Summary for August 14, 2018 Units:  English    Metric   Both
« Previous Day
Next Day »
Daily Weekly Monthly Yearly Custom
  Current: High: Low: Average:
Temperature: 66.9 °F 78.2 °F 64.9 °F 69.4 °F
Dew Point: 58.7 °F 60 °F 57 °F 58.9 °F
Humidity: 75 % 81 % 49 % 71 %
Wind Speed: 1.2 mph 1.2 mph 0 mph 0.2 mph
Wind Gust: 0 mph 0.3 mph - -
Wind:ESE - - South
Pressure: 29.83 in 29.83 in 29.79 in -
Precipitation: 0 in      
Historical Graphs
 
 
Tabular Data for August 14, 2018
Time Temperature Dew Point Pressure Wind Wind Speed Wind Gust Humidity Rainfall Rate (Hourly)
00:04 78.1 °F 58.5 °F 29.79 in WNW 1.2 mph 0.3 mph 51 % 0 in
00:09 78.1 °F 58.5 °F 29.79 in North 1.2 mph   51 % 0 in
00:12 78.2 °F 58.6 °F 29.79 in NW 1.2 mph   51 % 0 in
00:18 78.1 °F 57.9 °F 29.79 in Calm     50 % 0 in
00:24 78.1 °F 57.9 °F 29.79 in Calm     50 % 0 in
00:29 78 °F 57.9 °F 29.79 in NNW 1 mph   50 % 0 in
00:34 78 °F 57.9 °F 29.79 in Calm     50 % 0 in
00:39 78 °F 57.3 °F 29.79 in North 1.2 mph 0.1 mph 49 % 0 in
00:44 77.9 °F 57.2 °F 29.79 in Calm     49 % 0 in
00:49 77.7 °F 57 °F 29.79 in Calm     49 % 0 in
00:54 77.3 °F 57.2 °F 29.79 in Calm     50 % 0 in
00:58 76.9 °F 57.9 °F 29.79 in Calm     52 % 0 in
01:04 76.4 °F 58 °F 29.79 in Calm     53 % 0 in
01:09 76.4 °F 57.5 °F 29.79 in Calm     52 % 0 in
01:14 76.5 °F 57.6 °F 29.79 in Calm     52 % 0 in
01:19 76.4 °F 58.5 °F 29.79 in Calm     54 % 0 in
01:24 76 °F 58.7 °F 29.80 in Calm     55 % 0 in
01:29 75.5 °F 59.7 °F 29.80 in Calm     58 % 0 in
01:34 74.6 °F 58.8 °F 29.80 in Calm     58 % 0 in
01:39 74 °F 59.2 °F 29.80 in Calm     60 % 0 in
01:44 73.5 °F 59.2 °F 29.80 in Calm     61 % 0 in
01:49 72.9 °F 59.1 °F 29.80 in Calm     62 % 0 in
01:54 72.2 °F 58.9 °F 29.79 in Calm     63 % 0 in
01:59 71.8 °F 59.4 °F 29.79 in Calm     65 % 0 in
02:04 71.5 °F 60 °F 29.79 in Calm     67 % 0 in
02:09 71.2 °F 59.3 °F 29.79 in Calm     66 % 0 in
02:14 70.9 °F 59.4 °F 29.79 in Calm     67 % 0 in
02:19 70.6 °F 59.9 °F 29.79 in Calm     69 % 0 in
02:24 70.2 °F 59.6 °F 29.79 in Calm     69 % 0 in
02:29 69.7 °F 59.5 °F 29.79 in Calm     70 % 0 in
02:34 69.2 °F 59.8 °F 29.79 in Calm     72 % 0 in
02:39 68.9 °F 59.9 °F 29.80 in East 1 mph   73 % 0 in
02:44 68.7 °F 59.7 °F 29.80 in Calm     73 % 0 in
02:49 68.5 °F 59.5 °F 29.80 in Calm     73 % 0 in
02:54 68.4 °F 59.4 °F 29.80 in SE 1.2 mph 0.1 mph 73 % 0 in
02:59 68.2 °F 59.2 °F 29.80 in Calm     73 % 0 in
03:04 68.3 °F 59.3 °F 29.80 in Calm     73 % 0 in
03:09 68.2 °F 59.2 °F 29.80 in Calm     73 % 0 in
03:14 68 °F 59.4 °F 29.80 in Calm     74 % 0 in
03:19 67.9 °F 59.3 °F 29.80 in SE 1.2 mph 0.2 mph 74 % 0 in
03:24 67.8 °F 59.6 °F 29.80 in Calm     75 % 0 in
03:29 67.6 °F 59.4 °F 29.79 in Calm     75 % 0 in
03:34 67.5 °F 59.7 °F 29.79 in Calm     76 % 0 in
03:39 67.4 °F 59.6 °F 29.79 in Calm     76 % 0 in
03:44 67.3 °F 59.5 °F 29.79 in Calm     76 % 0 in
03:49 67.1 °F 59.6 °F 29.79 in Calm     77 % 0 in
03:54 67 °F 59.5 °F 29.79 in Calm     77 % 0 in
03:59 66.9 °F 59.5 °F 29.79 in Calm     77 % 0 in
04:04 66.7 °F 59.3 °F 29.79 in Calm     77 % 0 in
04:09 66.6 °F 59.5 °F 29.79 in Calm     78 % 0 in
04:14 66.4 °F 59.7 °F 29.79 in Calm     79 % 0 in
04:19 66.3 °F 59.6 °F 29.79 in Calm     79 % 0 in
04:24 66.3 °F 59.6 °F 29.80 in Calm     79 % 0 in
04:29 66.3 °F 59.6 °F 29.79 in Calm     79 % 0 in
04:34 66.3 °F 59.6 °F 29.79 in Calm     79 % 0 in
04:39 66.3 °F 59.6 °F 29.80 in SE 1.2 mph   79 % 0 in
04:44 66.3 °F 59.6 °F 29.80 in Calm     79 % 0 in
04:49 66.2 °F 59.8 °F 29.80 in Calm     80 % 0 in
04:54 66 °F 59.7 °F 29.80 in Calm     80 % 0 in
04:59 65.8 °F 59.5 °F 29.80 in Calm     80 % 0 in
05:04 65.6 °F 59.6 °F 29.80 in Calm     81 % 0 in
05:09 65.5 °F 59.5 °F 29.80 in Calm     81 % 0 in
05:14 65.4 °F 59.4 °F 29.80 in Calm     81 % 0 in
05:19 65.3 °F 59.3 °F 29.80 in SE 1.2 mph   81 % 0 in
05:24 65.2 °F 59.2 °F 29.80 in Calm     81 % 0 in
05:29 65.1 °F 59.1 °F 29.80 in Calm     81 % 0 in
05:34 65 °F 59 °F 29.80 in Calm     81 % 0 in
05:39 64.9 °F 58.9 °F 29.80 in Calm     81 % 0 in
05:44 65 °F 59 °F 29.80 in Calm     81 % 0 in
05:49 65 °F 59 °F 29.80 in Calm     81 % 0 in
05:54 65 °F 58.7 °F 29.80 in Calm     80 % 0 in
05:59 65 °F 58.7 °F 29.80 in Calm     80 % 0 in
06:04 65 °F 58.3 °F 29.81 in SE 1.2 mph   79 % 0 in
06:09 65 °F 58.3 °F 29.81 in SE 1.2 mph 0.1 mph 79 % 0 in
06:14 65 °F 58.3 °F 29.81 in SE 1 mph   79 % 0 in
06:19 65 °F 58 °F 29.81 in SE 1.2 mph   78 % 0 in
06:24 65.1 °F 58.1 °F 29.81 in Calm     78 % 0 in
06:29 65.1 °F 58.1 °F 29.81 in Calm     78 % 0 in
06:34 65.2 °F 57.8 °F 29.82 in Calm     77 % 0 in
06:39 65.3 °F 57.9 °F 29.82 in Calm     77 % 0 in
06:44 65.3 °F 57.9 °F 29.82 in Calm   0.1 mph 77 % 0 in
06:49 65.4 °F 58.4 °F 29.82 in Calm     78 % 0 in
06:54 65.6 °F 58.6 °F 29.82 in Calm     78 % 0 in
06:59 65.7 °F 58.3 °F 29.82 in Calm     77 % 0 in
07:04 65.9 °F 58.5 °F 29.82 in SE 1.2 mph   77 % 0 in
07:09 66.2 °F 58.8 °F 29.83 in SE 1.2 mph   77 % 0 in
07:14 66.5 °F 59.1 °F 29.83 in Calm     77 % 0 in
07:19 66.9 °F 58.7 °F 29.83 in ESE 1.2 mph   75 % 0 in
Park Place, Exeter, Tulare County, California, USA
Compliments of Weather Underground - 1.75 mb